Weather Data

Pearl Creek Farm: 8878 N Farm Road 75, Walnut Grove MO 65770

<== Previous Day (Thursday 12 Mar 2009) | Next Day (Saturday 14 Mar 2009) ==>

Summary Precipitation Data For Friday 13 March 2009

ElementValueUnits
Precipitation0"
Notes(none)
SourceSpringfield-Branson National Airport (SGF)

Summary Temperature Data For Friday 13 March 2009

ElementValueUnits
High Temperature49 oF
Low Temperature32 oF
Average Temperature40 oF
High Humidity49 %
Low Humidity29 %
Average Humidity39 %
SourceSpringfield-Branson National Airport (SGF)

Detail Temperature Data For Friday 13 March 2009

Date / TimeTemp (F)RH (%)Dew Pt (F)Report Date / TimeSource
2009-03-13 13:52:00 48 29 17.0 2017-12-29 19:14:24.89625 Springfield-Branson National Airport (SGF)
2009-03-13 00:52:00 35 37 11.0 2017-12-29 19:14:24.89625 Springfield-Branson National Airport (SGF)
2009-03-13 01:52:00 35 34 9.0 2017-12-29 19:14:24.89625 Springfield-Branson National Airport (SGF)
2009-03-13 02:52:00 34 37 10.0 2017-12-29 19:14:24.89625 Springfield-Branson National Airport (SGF)
2009-03-13 03:52:00 34 35 9.0 2017-12-29 19:14:24.89625 Springfield-Branson National Airport (SGF)
2009-03-13 04:52:00 33 38 10.0 2017-12-29 19:14:24.89625 Springfield-Branson National Airport (SGF)
2009-03-13 05:52:00 33 40 11.0 2017-12-29 19:14:24.89625 Springfield-Branson National Airport (SGF)
2009-03-13 06:52:00 32 47 14.0 2017-12-29 19:14:24.89625 Springfield-Branson National Airport (SGF)
2009-03-13 07:52:00 33 49 16.0 2017-12-29 19:14:24.89625 Springfield-Branson National Airport (SGF)
2009-03-13 08:52:00 34 46 15.0 2017-12-29 19:14:24.89625 Springfield-Branson National Airport (SGF)
2009-03-13 09:52:00 36 44 16.0 2017-12-29 19:14:24.89625 Springfield-Branson National Airport (SGF)
2009-03-13 10:52:00 40 41 18.0 2017-12-29 19:14:24.89625 Springfield-Branson National Airport (SGF)
2009-03-13 11:52:00 43 37 18.0 2017-12-29 19:14:24.89625 Springfield-Branson National Airport (SGF)
2009-03-13 12:52:00 46 31 17.0 2017-12-29 19:14:24.89625 Springfield-Branson National Airport (SGF)
2009-03-13 16:52:00 48 34 21.0 2017-12-29 19:14:24.89625 Springfield-Branson National Airport (SGF)
2009-03-13 17:52:00 46 37 21.0 2017-12-29 19:14:24.89625 Springfield-Branson National Airport (SGF)
2009-03-13 18:52:00 45 37 20.0 2017-12-29 19:14:24.89625 Springfield-Branson National Airport (SGF)
2009-03-13 19:52:00 43 42 21.0 2017-12-29 19:14:24.89625 Springfield-Branson National Airport (SGF)
2009-03-13 20:52:00 42 41 20.0 2017-12-29 19:14:24.89625 Springfield-Branson National Airport (SGF)
2009-03-13 23:52:00 40 47 21.0 2017-12-29 19:14:24.89625 Springfield-Branson National Airport (SGF)
2009-03-13 14:52:00 49 31 19.0 2017-12-29 19:14:24.89625 Springfield-Branson National Airport (SGF)
2009-03-13 15:52:00 49 32 20.0 2017-12-29 19:14:24.89625 Springfield-Branson National Airport (SGF)
2009-03-13 21:52:00 41 45 21.0 2017-12-29 19:14:24.89625 Springfield-Branson National Airport (SGF)
2009-03-13 22:52:00 40 47 21.0 2017-12-29 19:14:24.89625 Springfield-Branson National Airport (SGF)

A total of 24 rows are displayed.